sensor_id;sensor_type;location;lat;lon;timestamp;pressure;altitude;pressure_sealevel;temperature;humidity
21129;BME280;10722;51.910;8.352;2023-03-16T00:00:17;101269.41;;;0.31;88.36
21129;BME280;10722;51.910;8.352;2023-03-16T00:03:02;101273.91;;;0.35;88.75
21129;BME280;10722;51.910;8.352;2023-03-16T00:05:49;101272.81;;;0.32;88.16
21129;BME280;10722;51.910;8.352;2023-03-16T00:08:35;101277.25;;;0.34;88.76
21129;BME280;10722;51.910;8.352;2023-03-16T00:11:20;101271.97;;;0.44;88.33
21129;BME280;10722;51.910;8.352;2023-03-16T00:14:06;101270.00;;;0.40;88.34
21129;BME280;10722;51.910;8.352;2023-03-16T00:16:51;101272.72;;;0.30;88.48
21129;BME280;10722;51.910;8.352;2023-03-16T00:19:37;101270.84;;;0.28;88.33
21129;BME280;10722;51.910;8.352;2023-03-16T00:22:27;101276.78;;;0.28;88.20
21129;BME280;10722;51.910;8.352;2023-03-16T00:25:13;101275.72;;;0.25;87.86
21129;BME280;10722;51.910;8.352;2023-03-16T00:27:59;101274.16;;;0.27;88.39
21129;BME280;10722;51.910;8.352;2023-03-16T00:30:45;101274.72;;;0.22;88.37
21129;BME280;10722;51.910;8.352;2023-03-16T00:33:31;101274.97;;;0.26;88.58
21129;BME280;10722;51.910;8.352;2023-03-16T00:36:16;101270.84;;;0.28;88.58
21129;BME280;10722;51.910;8.352;2023-03-16T00:39:01;101268.41;;;0.29;88.37
21129;BME280;10722;51.910;8.352;2023-03-16T00:41:46;101273.28;;;0.26;88.59
21129;BME280;10722;51.910;8.352;2023-03-16T00:44:32;101269.56;;;0.21;88.57
21129;BME280;10722;51.910;8.352;2023-03-16T00:47:17;101268.75;;;0.22;88.57
21129;BME280;10722;51.910;8.352;2023-03-16T00:50:03;101272.44;;;0.14;88.98
21129;BME280;10722;51.910;8.352;2023-03-16T00:52:49;101271.22;;;0.20;88.62
21129;BME280;10722;51.910;8.352;2023-03-16T00:55:34;101256.44;;;0.28;88.81
21129;BME280;10722;51.910;8.352;2023-03-16T00:58:19;101258.44;;;0.32;88.82
21129;BME280;10722;51.910;8.352;2023-03-16T01:01:07;101252.53;;;0.20;88.79
21129;BME280;10722;51.910;8.352;2023-03-16T01:03:53;101255.16;;;0.21;88.61
21129;BME280;10722;51.910;8.352;2023-03-16T01:06:39;101251.13;;;0.12;89.24
21129;BME280;10722;51.910;8.352;2023-03-16T01:09:24;101241.22;;;0.03;89.29
21129;BME280;10722;51.910;8.352;2023-03-16T01:12:13;101236.31;;;0.06;89.31
21129;BME280;10722;51.910;8.352;2023-03-16T01:14:59;101233.00;;;0.07;89.59
21129;BME280;10722;51.910;8.352;2023-03-16T01:17:44;101241.28;;;0.05;89.80
21129;BME280;10722;51.910;8.352;2023-03-16T01:20:29;101244.88;;;-0.05;90.13
21129;BME280;10722;51.910;8.352;2023-03-16T01:23:15;101244.63;;;0.04;90.16
21129;BME280;10722;51.910;8.352;2023-03-16T01:26:01;101239.41;;;0.02;90.33
21129;BME280;10722;51.910;8.352;2023-03-16T01:28:46;101241.28;;;0.05;90.08
21129;BME280;10722;51.910;8.352;2023-03-16T01:31:32;101244.03;;;0.08;90.31
21129;BME280;10722;51.910;8.352;2023-03-16T01:34:17;101248.13;;;0.06;90.73
21129;BME280;10722;51.910;8.352;2023-03-16T01:37:02;101245.38;;;0.03;90.47
21129;BME280;10722;51.910;8.352;2023-03-16T01:39:48;101244.16;;;0.09;90.09
21129;BME280;10722;51.910;8.352;2023-03-16T01:42:44;101229.31;;;0.15;90.22
21129;BME280;10722;51.910;8.352;2023-03-16T01:46:32;101229.22;;;-0.60;90.13
21129;BME280;10722;51.910;8.352;2023-03-16T01:49:17;101236.84;;;-0.60;91.67
21129;BME280;10722;51.910;8.352;2023-03-16T01:52:06;101236.59;;;-0.51;92.16
21129;BME280;10722;51.910;8.352;2023-03-16T01:55:03;101229.72;;;-0.40;92.26
21129;BME280;10722;51.910;8.352;2023-03-16T01:57:49;101224.97;;;-0.36;92.51
21129;BME280;10722;51.910;8.352;2023-03-16T02:00:34;101220.31;;;-0.30;92.71
21129;BME280;10722;51.910;8.352;2023-03-16T02:03:20;101220.19;;;-0.19;92.52
21129;BME280;10722;51.910;8.352;2023-03-16T02:06:10;101207.72;;;-0.28;92.85
21129;BME280;10722;51.910;8.352;2023-03-16T02:08:56;101207.13;;;-0.24;92.71
21129;BME280;10722;51.910;8.352;2023-03-16T02:11:42;101188.34;;;-0.26;93.20
21129;BME280;10722;51.910;8.352;2023-03-16T02:14:27;101181.50;;;-0.27;92.94
21129;BME280;10722;51.910;8.352;2023-03-16T02:17:14;101180.91;;;-0.23;92.63
21129;BME280;10722;51.910;8.352;2023-03-16T02:23:14;101177.50;;;-0.24;93.01
21129;BME280;10722;51.910;8.352;2023-03-16T02:26:19;101180.38;;;-0.19;93.19
21129;BME280;10722;51.910;8.352;2023-03-16T02:32:31;101176.94;;;-0.19;92.32
21129;BME280;10722;51.910;8.352;2023-03-16T02:35:16;101178.38;;;-0.23;92.28
21129;BME280;10722;51.910;8.352;2023-03-16T02:38:02;101170.00;;;-0.22;91.98
21129;BME280;10722;51.910;8.352;2023-03-16T02:40:56;101163.13;;;-0.23;92.05
21129;BME280;10722;51.910;8.352;2023-03-16T02:44:28;101177.03;;;-0.18;91.89
21129;BME280;10722;51.910;8.352;2023-03-16T02:47:00;101167.84;;;-0.16;91.61
21129;BME280;10722;51.910;8.352;2023-03-16T02:49:46;101160.91;;;-0.18;91.39
21129;BME280;10722;51.910;8.352;2023-03-16T02:52:33;101159.34;;;-0.16;91.27
21129;BME280;10722;51.910;8.352;2023-03-16T02:55:19;101147.38;;;-0.17;91.04
21129;BME280;10722;51.910;8.352;2023-03-16T02:58:04;101150.72;;;-0.18;90.72
21129;BME280;10722;51.910;8.352;2023-03-16T03:00:49;101139.25;;;-0.25;90.60
21129;BME280;10722;51.910;8.352;2023-03-16T03:03:35;101142.78;;;-0.23;90.67
21129;BME280;10722;51.910;8.352;2023-03-16T03:06:20;101144.28;;;-0.13;90.12
21129;BME280;10722;51.910;8.352;2023-03-16T03:09:07;101145.75;;;-0.17;90.29
21129;BME280;10722;51.910;8.352;2023-03-16T03:11:52;101137.81;;;-0.21;90.05
21129;BME280;10722;51.910;8.352;2023-03-16T03:14:38;101136.13;;;-0.21;90.14
21129;BME280;10722;51.910;8.352;2023-03-16T03:17:23;101136.13;;;-0.21;90.10
21129;BME280;10722;51.910;8.352;2023-03-16T03:20:10;101133.75;;;-0.31;90.24
21129;BME280;10722;51.910;8.352;2023-03-16T03:22:56;101127.91;;;-0.30;89.95
21129;BME280;10722;51.910;8.352;2023-03-16T03:25:41;101125.91;;;-0.34;89.93
21129;BME280;10722;51.910;8.352;2023-03-16T03:28:27;101127.50;;;-0.36;89.72
21129;BME280;10722;51.910;8.352;2023-03-16T03:31:18;101121.16;;;-0.30;89.95
21129;BME280;10722;51.910;8.352;2023-03-16T03:34:03;101129.97;;;-0.25;89.52
21129;BME280;10722;51.910;8.352;2023-03-16T03:36:49;101126.75;;;-0.22;90.05
21129;BME280;10722;51.910;8.352;2023-03-16T03:39:35;101122.63;;;-0.20;89.72
21129;BME280;10722;51.910;8.352;2023-03-16T03:42:20;101121.97;;;-0.17;89.85
21129;BME280;10722;51.910;8.352;2023-03-16T03:45:06;101127.16;;;-0.16;89.82
21129;BME280;10722;51.910;8.352;2023-03-16T03:47:52;101121.88;;;-0.19;89.17
21129;BME280;10722;51.910;8.352;2023-03-16T03:50:37;101127.47;;;-0.11;89.08
21129;BME280;10722;51.910;8.352;2023-03-16T03:53:22;101124.94;;;-0.11;88.96
21129;BME280;10722;51.910;8.352;2023-03-16T03:56:08;101118.19;;;-0.11;89.04
21129;BME280;10722;51.910;8.352;2023-03-16T03:58:53;101128.44;;;-0.09;89.54
21129;BME280;10722;51.910;8.352;2023-03-16T04:01:38;101123.28;;;-0.11;89.47
21129;BME280;10722;51.910;8.352;2023-03-16T04:04:24;101118.66;;;-0.16;89.03
21129;BME280;10722;51.910;8.352;2023-03-16T04:07:10;101117.38;;;-0.10;89.35
21129;BME280;10722;51.910;8.352;2023-03-16T04:09:55;101108.22;;;-0.08;88.77
21129;BME280;10722;51.910;8.352;2023-03-16T04:12:41;101108.00;;;-0.11;88.70
21129;BME280;10722;51.910;8.352;2023-03-16T04:15:26;101097.34;;;-0.05;88.32
21129;BME280;10722;51.910;8.352;2023-03-16T04:18:11;101097.16;;;-0.08;88.36
21129;BME280;10722;51.910;8.352;2023-03-16T04:20:57;101104.41;;;-0.01;88.45
21129;BME280;10722;51.910;8.352;2023-03-16T04:23:43;101097.47;;;0.10;88.14
21129;BME280;10722;51.910;8.352;2023-03-16T04:26:28;101102.28;;;0.18;87.99
21129;BME280;10722;51.910;8.352;2023-03-16T04:29:14;101107.56;;;0.21;87.73
21129;BME280;10722;51.910;8.352;2023-03-16T04:32:00;101100.59;;;0.19;87.73
21129;BME280;10722;51.910;8.352;2023-03-16T04:34:45;101089.06;;;0.24;87.53
21129;BME280;10722;51.910;8.352;2023-03-16T04:37:30;101085.72;;;0.25;87.21
21129;BME280;10722;51.910;8.352;2023-03-16T04:40:16;101090.44;;;0.32;86.95
21129;BME280;10722;51.910;8.352;2023-03-16T04:43:01;101079.28;;;0.30;87.21
21129;BME280;10722;51.910;8.352;2023-03-16T04:45:46;101069.69;;;0.26;86.70
21129;BME280;10722;51.910;8.352;2023-03-16T04:48:31;101063.75;;;0.26;86.50
21129;BME280;10722;51.910;8.352;2023-03-16T04:51:17;101070.78;;;0.30;86.80
21129;BME280;10722;51.910;8.352;2023-03-16T04:54:02;101072.13;;;0.38;86.75
21129;BME280;10722;51.910;8.352;2023-03-16T04:56:48;101072.03;;;0.36;86.73
21129;BME280;10722;51.910;8.352;2023-03-16T04:59:33;101065.06;;;0.34;86.66
21129;BME280;10722;51.910;8.352;2023-03-16T05:02:18;101069.41;;;0.35;86.81
21129;BME280;10722;51.910;8.352;2023-03-16T05:05:04;101078.41;;;0.43;86.85
21129;BME280;10722;51.910;8.352;2023-03-16T05:07:49;101074.97;;;0.56;86.48
21129;BME280;10722;51.910;8.352;2023-03-16T05:10:34;101069.50;;;0.50;86.56
21129;BME280;10722;51.910;8.352;2023-03-16T05:13:20;101065.97;;;0.48;86.48
21129;BME280;10722;51.910;8.352;2023-03-16T05:16:05;101060.19;;;0.50;86.38
21129;BME280;10722;51.910;8.352;2023-03-16T05:18:51;101061.47;;;0.57;86.58
21129;BME280;10722;51.910;8.352;2023-03-16T05:21:36;101054.59;;;0.69;86.22
21129;BME280;10722;51.910;8.352;2023-03-16T05:24:22;101054.09;;;0.75;86.32
21129;BME280;10722;51.910;8.352;2023-03-16T05:27:07;101048.88;;;0.73;85.46
21129;BME280;10722;51.910;8.352;2023-03-16T05:29:52;101048.38;;;0.79;85.79
21129;BME280;10722;51.910;8.352;2023-03-16T05:32:37;101048.28;;;0.91;85.59
21129;BME280;10722;51.910;8.352;2023-03-16T05:35:22;101041.84;;;0.82;85.29
21129;BME280;10722;51.910;8.352;2023-03-16T05:38:08;101045.72;;;0.91;85.25
21129;BME280;10722;51.910;8.352;2023-03-16T05:40:54;101043.19;;;0.91;85.06
21129;BME280;10722;51.910;8.352;2023-03-16T05:43:39;101039.63;;;1.02;85.21
21129;BME280;10722;51.910;8.352;2023-03-16T05:46:24;101027.28;;;0.95;85.34
21129;BME280;10722;51.910;8.352;2023-03-16T05:49:09;101029.34;;;1.00;84.86
21129;BME280;10722;51.910;8.352;2023-03-16T05:51:54;101024.34;;;1.02;84.88
21129;BME280;10722;51.910;8.352;2023-03-16T05:54:40;101019.44;;;1.05;84.94
21129;BME280;10722;51.910;8.352;2023-03-16T05:57:25;101020.59;;;1.10;84.77
21129;BME280;10722;51.910;8.352;2023-03-16T06:00:12;101026.47;;;1.24;84.19
21129;BME280;10722;51.910;8.352;2023-03-16T06:02:58;101015.53;;;1.25;83.86
21129;BME280;10722;51.910;8.352;2023-03-16T06:05:44;101010.59;;;1.28;84.02
21129;BME280;10722;51.910;8.352;2023-03-16T06:08:29;101009.91;;;1.30;83.85
21129;BME280;10722;51.910;8.352;2023-03-16T06:11:15;101010.09;;;1.33;83.87
21129;BME280;10722;51.910;8.352;2023-03-16T06:14:01;101001.13;;;1.40;83.67
21129;BME280;10722;51.910;8.352;2023-03-16T06:16:45;100989.34;;;1.42;83.45
21129;BME280;10722;51.910;8.352;2023-03-16T06:19:31;100998.91;;;1.46;83.31
21129;BME280;10722;51.910;8.352;2023-03-16T06:22:16;101001.69;;;1.49;83.23
21129;BME280;10722;51.910;8.352;2023-03-16T06:25:02;100999.72;;;1.60;83.01
21129;BME280;10722;51.910;8.352;2023-03-16T06:27:47;100996.22;;;1.58;82.88
21129;BME280;10722;51.910;8.352;2023-03-16T06:30:33;100999.72;;;1.60;83.03
21129;BME280;10722;51.910;8.352;2023-03-16T06:33:18;100999.91;;;1.63;82.91
21129;BME280;10722;51.910;8.352;2023-03-16T06:36:03;101002.19;;;1.59;82.65
21129;BME280;10722;51.910;8.352;2023-03-16T06:38:48;101000.81;;;1.64;83.31
21129;BME280;10722;51.910;8.352;2023-03-16T06:41:33;100996.41;;;1.76;83.17
21129;BME280;10722;51.910;8.352;2023-03-16T06:44:18;100992.28;;;1.78;83.38
21129;BME280;10722;51.910;8.352;2023-03-16T06:47:04;100986.81;;;1.87;83.03
21129;BME280;10722;51.910;8.352;2023-03-16T06:49:49;100986.34;;;1.94;83.33
21129;BME280;10722;51.910;8.352;2023-03-16T06:52:34;100989.16;;;1.98;83.14
21129;BME280;10722;51.910;8.352;2023-03-16T06:55:20;100994.94;;;2.11;82.75
21129;BME280;10722;51.910;8.352;2023-03-16T06:58:05;100983.75;;;2.23;82.92
21129;BME280;10722;51.910;8.352;2023-03-16T07:00:51;100990.88;;;2.29;82.24
21129;BME280;10722;51.910;8.352;2023-03-16T07:03:37;100989.84;;;2.42;81.84
21129;BME280;10722;51.910;8.352;2023-03-16T07:06:23;100976.31;;;2.43;81.50
21129;BME280;10722;51.910;8.352;2023-03-16T07:09:08;100972.97;;;2.60;81.33
21129;BME280;10722;51.910;8.352;2023-03-16T07:11:53;100972.09;;;2.60;80.56
21129;BME280;10722;51.910;8.352;2023-03-16T07:14:39;100970.69;;;2.65;80.69
21129;BME280;10722;51.910;8.352;2023-03-16T07:17:24;100966.19;;;2.61;80.67
21129;BME280;10722;51.910;8.352;2023-03-16T07:20:10;100977.59;;;2.67;80.16
21129;BME280;10722;51.910;8.352;2023-03-16T07:22:56;100984.16;;;2.79;80.22
21129;BME280;10722;51.910;8.352;2023-03-16T07:25:41;100981.03;;;2.84;79.80
21129;BME280;10722;51.910;8.352;2023-03-16T07:28:26;100982.00;;;2.86;79.77
21129;BME280;10722;51.910;8.352;2023-03-16T07:31:12;100975.63;;;2.95;79.46
21129;BME280;10722;51.910;8.352;2023-03-16T07:33:58;100969.97;;;3.00;78.86
21129;BME280;10722;51.910;8.352;2023-03-16T07:36:43;100961.25;;;2.97;78.54
21129;BME280;10722;51.910;8.352;2023-03-16T07:39:29;100964.22;;;3.04;78.72
21129;BME280;10722;51.910;8.352;2023-03-16T07:42:14;100972.19;;;3.10;78.43
21129;BME280;10722;51.910;8.352;2023-03-16T07:45:00;100965.88;;;3.20;78.30
21129;BME280;10722;51.910;8.352;2023-03-16T07:47:45;100966.84;;;3.22;78.77
21129;BME280;10722;51.910;8.352;2023-03-16T07:50:30;100968.97;;;3.31;77.88
21129;BME280;10722;51.910;8.352;2023-03-16T07:53:16;100977.97;;;3.41;78.00
21129;BME280;10722;51.910;8.352;2023-03-16T07:56:01;100966.53;;;3.50;77.06
21129;BME280;10722;51.910;8.352;2023-03-16T07:58:47;100960.84;;;3.56;76.52
21129;BME280;10722;51.910;8.352;2023-03-16T08:04:09;100958.97;;;3.70;76.57
21129;BME280;10722;51.910;8.352;2023-03-16T08:06:54;100953.56;;;3.99;76.46
21129;BME280;10722;51.910;8.352;2023-03-16T08:09:40;100937.41;;;4.00;75.68
21129;BME280;10722;51.910;8.352;2023-03-16T08:12:25;100921.72;;;4.30;74.72
21129;BME280;10722;51.910;8.352;2023-03-16T08:15:11;100907.81;;;4.62;73.66
21129;BME280;10722;51.910;8.352;2023-03-16T08:18:00;100895.78;;;4.81;72.71
21129;BME280;10722;51.910;8.352;2023-03-16T08:20:46;100870.47;;;4.88;71.88
21129;BME280;10722;51.910;8.352;2023-03-16T08:23:31;100868.50;;;5.23;70.80
21129;BME280;10722;51.910;8.352;2023-03-16T08:26:18;100858.16;;;5.41;70.38
21129;BME280;10722;51.910;8.352;2023-03-16T08:29:03;100854.44;;;5.34;70.01
21129;BME280;10722;51.910;8.352;2023-03-16T08:31:51;100839.44;;;5.44;69.30
21129;BME280;10722;51.910;8.352;2023-03-16T08:34:36;100828.97;;;5.39;68.52
21129;BME280;10722;51.910;8.352;2023-03-16T08:37:22;100805.59;;;5.54;67.43
21129;BME280;10722;51.910;8.352;2023-03-16T08:40:09;100813.31;;;5.97;67.56
21129;BME280;10722;51.910;8.352;2023-03-16T08:42:54;100798.63;;;6.17;66.26
21129;BME280;10722;51.910;8.352;2023-03-16T08:51:48;100789.03;;;5.68;66.22
21129;BME280;10722;51.910;8.352;2023-03-16T08:54:33;100820.50;;;5.85;66.98
21129;BME280;10722;51.910;8.352;2023-03-16T08:57:18;100814.25;;;5.78;66.64
21129;BME280;10722;51.910;8.352;2023-03-16T09:00:05;100795.13;;;5.70;65.70
21129;BME280;10722;51.910;8.352;2023-03-16T09:02:50;100800.41;;;5.96;65.35
21129;BME280;10722;51.910;8.352;2023-03-16T09:05:35;100792.31;;;6.33;64.91
21129;BME280;10722;51.910;8.352;2023-03-16T09:08:21;100735.97;;;6.14;62.87
21129;BME280;10722;51.910;8.352;2023-03-16T09:11:09;100759.84;;;6.35;62.83
21129;BME280;10722;51.910;8.352;2023-03-16T09:13:54;100756.13;;;6.51;62.90
21129;BME280;10722;51.910;8.352;2023-03-16T09:16:40;100735.81;;;6.59;62.35
21129;BME280;10722;51.910;8.352;2023-03-16T09:19:25;100789.19;;;6.91;63.68
21129;BME280;10722;51.910;8.352;2023-03-16T09:22:14;100765.00;;;7.12;62.57
21129;BME280;10722;51.910;8.352;2023-03-16T09:25:00;100778.56;;;7.33;62.36
21129;BME280;10722;51.910;8.352;2023-03-16T09:27:45;100732.22;;;7.33;61.04
21129;BME280;10722;51.910;8.352;2023-03-16T09:30:30;100706.22;;;7.24;60.25
21129;BME280;10722;51.910;8.352;2023-03-16T09:33:16;100704.50;;;7.25;59.93
21129;BME280;10722;51.910;8.352;2023-03-16T09:36:01;100704.38;;;7.49;59.96
21129;BME280;10722;51.910;8.352;2023-03-16T09:38:47;100705.06;;;7.43;59.64
21129;BME280;10722;51.910;8.352;2023-03-16T09:47:45;100653.25;;;7.61;57.53
21129;BME280;10722;51.910;8.352;2023-03-16T09:50:38;100658.94;;;7.81;57.94
21129;BME280;10722;51.910;8.352;2023-03-16T09:53:37;100670.75;;;8.04;57.47
21129;BME280;10722;51.910;8.352;2023-03-16T09:56:49;100663.09;;;8.07;57.41
21129;BME280;10722;51.910;8.352;2023-03-16T09:59:36;100649.06;;;7.96;57.01
21129;BME280;10722;51.910;8.352;2023-03-16T10:02:43;100656.69;;;7.92;56.90
21129;BME280;10722;51.910;8.352;2023-03-16T10:05:31;100650.06;;;7.70;57.29
21129;BME280;10722;51.910;8.352;2023-03-16T10:08:53;100657.81;;;7.71;57.25
21129;BME280;10722;51.910;8.352;2023-03-16T10:17:38;100670.88;;;8.09;57.29
21129;BME280;10722;51.910;8.352;2023-03-16T10:20:27;100680.44;;;8.45;57.61
21129;BME280;10722;51.910;8.352;2023-03-16T10:23:21;100655.34;;;8.06;57.30
21129;BME280;10722;51.910;8.352;2023-03-16T10:26:19;100685.03;;;8.25;57.96
21129;BME280;10722;51.910;8.352;2023-03-16T10:29:10;100657.00;;;8.04;56.96
21129;BME280;10722;51.910;8.352;2023-03-16T10:32:06;100617.13;;;7.91;56.04
21129;BME280;10722;51.910;8.352;2023-03-16T10:34:59;100647.47;;;8.01;57.24
21129;BME280;10722;51.910;8.352;2023-03-16T10:37:46;100645.22;;;8.14;56.95
21129;BME280;10722;51.910;8.352;2023-03-16T10:40:36;100657.44;;;8.21;57.35
21129;BME280;10722;51.910;8.352;2023-03-16T10:43:22;100628.41;;;7.95;56.62
21129;BME280;10722;51.910;8.352;2023-03-16T10:46:09;100669.16;;;8.09;57.46
21129;BME280;10722;51.910;8.352;2023-03-16T10:48:58;100657.94;;;8.07;57.22
21129;BME280;10722;51.910;8.352;2023-03-16T10:51:44;100637.25;;;8.04;56.51
21129;BME280;10722;51.910;8.352;2023-03-16T10:54:44;100662.31;;;8.10;57.03
21129;BME280;10722;51.910;8.352;2023-03-16T10:57:34;100645.03;;;8.06;56.76
21129;BME280;10722;51.910;8.352;2023-03-16T11:00:24;100635.94;;;7.87;56.76
21129;BME280;10722;51.910;8.352;2023-03-16T11:03:36;100665.28;;;7.94;57.78
21129;BME280;10722;51.910;8.352;2023-03-16T11:06:31;100626.31;;;7.80;57.13
21129;BME280;10722;51.910;8.352;2023-03-16T11:09:25;100631.16;;;7.69;56.80
21129;BME280;10722;51.910;8.352;2023-03-16T11:12:24;100639.75;;;7.70;57.47
21129;BME280;10722;51.910;8.352;2023-03-16T11:15:12;100631.19;;;7.71;57.10
21129;BME280;10722;51.910;8.352;2023-03-16T11:18:29;100639.28;;;7.83;57.90
21129;BME280;10722;51.910;8.352;2023-03-16T11:27:14;100606.34;;;7.73;56.92
21129;BME280;10722;51.910;8.352;2023-03-16T11:33:00;100607.91;;;7.99;56.72
21129;BME280;10722;51.910;8.352;2023-03-16T11:39:00;100566.69;;;7.99;54.67
21129;BME280;10722;51.910;8.352;2023-03-16T11:57:02;100553.81;;;8.34;54.23
21129;BME280;10722;51.910;8.352;2023-03-16T12:06:13;100544.31;;;8.68;54.15
21129;BME280;10722;51.910;8.352;2023-03-16T12:18:04;100540.00;;;8.32;55.01
21129;BME280;10722;51.910;8.352;2023-03-16T12:21:08;100494.16;;;8.19;53.73
21129;BME280;10722;51.910;8.352;2023-03-16T12:23:58;100468.44;;;8.20;53.31
21129;BME280;10722;51.910;8.352;2023-03-16T12:26:44;100488.34;;;8.27;53.96
21129;BME280;10722;51.910;8.352;2023-03-16T12:32:46;100468.91;;;8.40;53.30
21129;BME280;10722;51.910;8.352;2023-03-16T12:38:50;100435.66;;;8.15;53.02
21129;BME280;10722;51.910;8.352;2023-03-16T12:47:32;100527.59;;;8.50;55.70
21129;BME280;10722;51.910;8.352;2023-03-16T12:50:20;100493.66;;;8.34;54.96
21129;BME280;10722;51.910;8.352;2023-03-16T12:53:06;100480.53;;;8.24;55.14
21129;BME280;10722;51.910;8.352;2023-03-16T12:55:51;100493.56;;;8.30;55.50
21129;BME280;10722;51.910;8.352;2023-03-16T12:58:48;100510.03;;;8.36;56.29
21129;BME280;10722;51.910;8.352;2023-03-16T13:01:41;100484.97;;;8.30;55.80
21129;BME280;10722;51.910;8.352;2023-03-16T13:04:33;100471.41;;;8.37;55.52
21129;BME280;10722;51.910;8.352;2023-03-16T13:07:22;100475.19;;;8.51;55.63
21129;BME280;10722;51.910;8.352;2023-03-16T13:10:11;100501.13;;;9.00;56.12
21129;BME280;10722;51.910;8.352;2023-03-16T13:13:10;100494.25;;;9.01;56.20
21129;BME280;10722;51.910;8.352;2023-03-16T13:16:22;100494.59;;;8.75;56.43
21129;BME280;10722;51.910;8.352;2023-03-16T13:19:26;100494.50;;;8.70;56.27
21129;BME280;10722;51.910;8.352;2023-03-16T13:25:23;100485.69;;;8.61;57.14
21129;BME280;10722;51.910;8.352;2023-03-16T13:28:19;100470.06;;;8.94;56.24
21129;BME280;10722;51.910;8.352;2023-03-16T13:31:33;100457.16;;;8.94;55.94
21129;BME280;10722;51.910;8.352;2023-03-16T13:34:30;100456.22;;;8.90;56.10
21129;BME280;10722;51.910;8.352;2023-03-16T13:37:18;100455.19;;;8.82;55.85
21129;BME280;10722;51.910;8.352;2023-03-16T13:40:17;100457.84;;;8.87;56.14
21129;BME280;10722;51.910;8.352;2023-03-16T13:43:03;100440.13;;;9.04;55.42
21129;BME280;10722;51.910;8.352;2023-03-16T13:45:49;100432.78;;;9.24;55.44
21129;BME280;10722;51.910;8.352;2023-03-16T13:48:36;100402.94;;;9.39;53.99
21129;BME280;10722;51.910;8.352;2023-03-16T13:51:22;100366.03;;;8.96;54.38
21129;BME280;10722;51.910;8.352;2023-03-16T13:54:26;100392.44;;;9.30;54.37
21129;BME280;10722;51.910;8.352;2023-03-16T13:57:18;100382.84;;;9.22;54.23
21129;BME280;10722;51.910;8.352;2023-03-16T14:00:19;100354.16;;;9.05;53.78
21129;BME280;10722;51.910;8.352;2023-03-16T14:03:18;100330.03;;;9.03;53.32
21129;BME280;10722;51.910;8.352;2023-03-16T14:06:05;100338.13;;;9.24;53.43
21129;BME280;10722;51.910;8.352;2023-03-16T14:08:53;100310.75;;;8.82;53.33
21129;BME280;10722;51.910;8.352;2023-03-16T14:11:41;100312.16;;;8.65;54.03
21129;BME280;10722;51.910;8.352;2023-03-16T14:14:30;100308.44;;;8.50;53.90
21129;BME280;10722;51.910;8.352;2023-03-16T14:17:18;100323.97;;;8.53;54.55
21129;BME280;10722;51.910;8.352;2023-03-16T14:20:05;100302.28;;;8.42;54.08
21129;BME280;10722;51.910;8.352;2023-03-16T14:22:51;100301.41;;;8.43;54.40
21129;BME280;10722;51.910;8.352;2023-03-16T14:25:37;100329.25;;;8.60;54.78
21129;BME280;10722;51.910;8.352;2023-03-16T14:28:32;100294.72;;;8.51;54.54
21129;BME280;10722;51.910;8.352;2023-03-16T14:31:19;100314.75;;;8.66;54.85
21129;BME280;10722;51.910;8.352;2023-03-16T14:34:19;100298.13;;;8.50;54.37
21129;BME280;10722;51.910;8.352;2023-03-16T14:37:10;100330.44;;;8.77;54.93
21129;BME280;10722;51.910;8.352;2023-03-16T14:40:00;100332.03;;;9.19;54.22
21129;BME280;10722;51.910;8.352;2023-03-16T14:42:46;100310.91;;;8.91;54.39
21129;BME280;10722;51.910;8.352;2023-03-16T14:45:34;100329.13;;;9.01;55.25
21129;BME280;10722;51.910;8.352;2023-03-16T14:48:20;100307.91;;;9.17;55.01
21129;BME280;10722;51.910;8.352;2023-03-16T14:51:12;100294.34;;;9.30;54.47
21129;BME280;10722;51.910;8.352;2023-03-16T14:54:04;100273.56;;;9.23;54.03
21129;BME280;10722;51.910;8.352;2023-03-16T14:56:54;100286.31;;;9.70;54.00
21129;BME280;10722;51.910;8.352;2023-03-16T14:59:42;100270.19;;;9.86;53.80
21129;BME280;10722;51.910;8.352;2023-03-16T15:02:29;100255.00;;;10.12;53.30
21129;BME280;10722;51.910;8.352;2023-03-16T15:05:22;100254.66;;;9.84;53.47
21129;BME280;10722;51.910;8.352;2023-03-16T15:08:44;100199.38;;;9.08;53.01
21129;BME280;10722;51.910;8.352;2023-03-16T15:11:30;100212.13;;;8.98;53.89
21129;BME280;10722;51.910;8.352;2023-03-16T15:14:15;100238.03;;;9.06;54.17
21129;BME280;10722;51.910;8.352;2023-03-16T15:17:00;100228.56;;;9.05;53.96
21129;BME280;10722;51.910;8.352;2023-03-16T15:19:45;100225.44;;;9.26;53.63
21129;BME280;10722;51.910;8.352;2023-03-16T15:22:31;100203.44;;;9.53;53.07
21129;BME280;10722;51.910;8.352;2023-03-16T15:25:27;100215.53;;;9.57;53.29
21129;BME280;10722;51.910;8.352;2023-03-16T15:28:16;100209.31;;;9.42;53.50
21129;BME280;10722;51.910;8.352;2023-03-16T15:31:03;100194.25;;;9.11;53.65
21129;BME280;10722;51.910;8.352;2023-03-16T15:33:48;100225.72;;;9.45;54.72
21129;BME280;10722;51.910;8.352;2023-03-16T15:36:33;100218.28;;;9.68;54.25
21129;BME280;10722;51.910;8.352;2023-03-16T15:39:21;100198.41;;;9.62;54.03
21129;BME280;10722;51.910;8.352;2023-03-16T15:42:18;100188.28;;;9.79;53.39
21129;BME280;10722;51.910;8.352;2023-03-16T15:45:07;100183.78;;;9.65;53.59
21129;BME280;10722;51.910;8.352;2023-03-16T15:47:55;100198.22;;;9.47;54.37
21129;BME280;10722;51.910;8.352;2023-03-16T15:50:43;100202.03;;;9.76;54.23
21129;BME280;10722;51.910;8.352;2023-03-16T15:53:41;100181.41;;;9.82;53.34
21129;BME280;10722;51.910;8.352;2023-03-16T15:56:30;100190.06;;;9.84;53.83
21129;BME280;10722;51.910;8.352;2023-03-16T15:59:18;100190.84;;;9.79;54.28
21129;BME280;10722;51.910;8.352;2023-03-16T16:02:23;100161.44;;;9.68;53.30
21129;BME280;10722;51.910;8.352;2023-03-16T16:05:10;100154.88;;;9.26;53.76
21129;BME280;10722;51.910;8.352;2023-03-16T16:07:55;100162.41;;;9.10;54.19
21129;BME280;10722;51.910;8.352;2023-03-16T16:10:41;100177.13;;;9.16;54.59
21129;BME280;10722;51.910;8.352;2023-03-16T16:13:28;100187.56;;;9.24;55.00